Time;durP1;ratioP1;P1;durP2;ratioP2;P2;SDS_P1;SDS_P2;PMS_P1;PMS_P2;Temp;Humidity;BMP_temperature;BMP_pressure;BME280_temperature;BME280_humidity;BME280_pressure;Samples;Min_cycle;Max_cycle;Signal;HPM_P1;HPM_P2
2022/05/11 00:00:39;;;;;;;;;9.50;8.50;;;;;22.84;34.03;100969.88;4982833;28;45339;-50
2022/05/11 00:03:05;;;;;;;;;10.00;6.75;;;;;22.79;34.21;100971.97;5000561;28;45415;-48
2022/05/11 00:05:32;;;;;;;;;8.25;7.75;;;;;22.75;34.00;100970.47;4999284;28;47159;-49
2022/05/11 00:07:57;;;;;;;;;7.00;7.00;;;;;22.69;34.07;100967.22;5000546;28;45314;-50
2022/05/11 00:10:23;;;;;;;;;10.25;7.75;;;;;22.64;34.49;100965.75;5011064;28;45499;-51
2022/05/11 00:12:50;;;;;;;;;7.00;7.00;;;;;22.60;34.41;100954.38;5000110;28;45471;-47
2022/05/11 00:15:20;;;;;;;;;8.00;8.00;;;;;22.55;34.35;100968.06;5000249;28;45969;-51
2022/05/11 00:17:46;;;;;;;;;8.50;7.00;;;;;22.51;34.44;100968.34;5000265;28;45171;-47
2022/05/11 00:20:13;;;;;;;;;8.00;7.50;;;;;22.48;34.58;100960.50;5000177;28;45243;-50
2022/05/11 00:22:39;;;;;;;;;6.50;6.50;;;;;22.43;34.29;100960.78;5000407;28;45462;-50
2022/05/11 00:25:06;;;;;;;;;9.00;8.00;;;;;22.38;34.93;100950.31;4999832;28;45746;-49
2022/05/11 00:27:32;;;;;;;;;9.50;9.00;;;;;22.34;34.64;100954.13;4999980;28;45275;-50
2022/05/11 00:29:58;;;;;;;;;6.00;6.00;;;;;22.27;34.98;100936.69;5000207;28;45300;-50
2022/05/11 00:32:25;;;;;;;;;10.25;9.00;;;;;22.22;34.85;100939.66;5000188;28;45226;-50
2022/05/11 00:34:51;;;;;;;;;13.00;8.75;;;;;22.22;34.83;100942.31;4999541;28;46554;-47
2022/05/11 00:37:17;;;;;;;;;7.50;7.50;;;;;22.17;34.92;100932.88;4999272;28;45374;-51
2022/05/11 00:39:43;;;;;;;;;7.50;6.00;;;;;22.12;35.27;100932.28;4999804;28;45346;-49
2022/05/11 00:42:08;;;;;;;;;12.75;10.75;;;;;22.10;35.11;100929.69;4982204;28;45342;-48
2022/05/11 00:44:33;;;;;;;;;8.75;6.25;;;;;22.04;35.07;100922.03;4999711;28;46384;-46
2022/05/11 00:47:06;;;;;;;;;17.75;15.75;;;;;22.04;35.11;100922.03;5000111;28;45349;-52
2022/05/11 00:49:36;;;;;;;;;9.75;9.00;;;;;21.99;35.04;100927.66;5000306;28;45215;-51
2022/05/11 00:52:22;;;;;;;;;8.50;8.50;;;;;21.95;35.33;100917.22;5000021;28;45330;-49
2022/05/11 00:54:58;;;;;;;;;14.50;10.25;;;;;21.91;35.74;100920.09;4999625;28;46451;-50
2022/05/11 00:57:32;;;;;;;;;8.25;7.75;;;;;21.88;35.66;100912.22;4981678;28;45367;-51
2022/05/11 00:59:59;;;;;;;;;7.75;7.75;;;;;21.86;35.87;100911.47;4999958;28;45381;-48
2022/05/11 01:02:26;;;;;;;;;9.00;9.00;;;;;21.82;35.90;100909.06;4999612;28;45488;-49
2022/05/11 01:04:56;;;;;;;;;8.25;8.25;;;;;21.78;35.44;100905.72;4999775;28;46208;-47
2022/05/11 01:07:22;;;;;;;;;9.50;8.25;;;;;21.75;36.06;100893.38;4999572;28;45346;-48
2022/05/11 01:09:48;;;;;;;;;11.25;8.75;;;;;21.71;36.16;100896.31;5008157;28;45207;-48
2022/05/11 01:12:17;;;;;;;;;8.50;7.50;;;;;21.64;35.60;100887.81;5002784;28;45351;-46
2022/05/11 01:14:48;;;;;;;;;7.25;7.00;;;;;21.65;35.87;100891.34;4999635;28;45330;-48
2022/05/11 01:17:14;;;;;;;;;7.25;7.25;;;;;21.58;36.22;100883.69;4981819;28;45200;-47
2022/05/11 01:19:43;;;;;;;;;8.50;8.50;;;;;21.58;36.40;100886.38;4999440;28;45220;-49
2022/05/11 01:22:08;;;;;;;;;10.00;8.00;;;;;21.54;36.01;100884.75;4999429;28;45302;-47
2022/05/11 01:24:39;;;;;;;;;10.00;7.75;;;;;21.52;35.92;100881.34;4999364;28;46157;-46
2022/05/11 01:27:31;;;;;;;;;7.00;7.00;;;;;21.49;36.25;100884.16;4999178;28;45452;-47
2022/05/11 01:30:21;;;;;;;;;7.00;7.00;;;;;21.46;36.68;100881.69;4999449;28;45331;-45
2022/05/11 01:32:51;;;;;;;;;8.00;7.75;;;;;21.41;36.19;100876.59;4999281;28;45516;-50
2022/05/11 01:35:22;;;;;;;;;8.00;8.00;;;;;21.39;36.22;100873.13;4999210;28;45343;-50
2022/05/11 01:37:59;;;;;;;;;9.25;8.00;;;;;21.36;36.52;100873.34;4999361;28;45265;-49
2022/05/11 01:40:25;;;;;;;;;7.00;7.00;;;;;21.34;36.79;100877.03;4999205;28;45435;-49
2022/05/11 01:42:50;;;;;;;;;7.00;7.00;;;;;21.29;36.54;100874.63;4981308;28;45330;-48
2022/05/11 01:45:16;;;;;;;;;9.75;7.50;;;;;21.26;36.63;100874.81;4999251;28;45282;-49
2022/05/11 01:47:44;;;;;;;;;7.50;7.00;;;;;21.22;36.46;100876.78;5000721;28;45330;-49
2022/05/11 01:50:09;;;;;;;;;6.75;6.75;;;;;21.21;36.34;100874.22;5002947;28;45188;-48
2022/05/11 01:52:35;;;;;;;;;11.00;10.00;;;;;21.16;36.57;100874.47;5002324;28;45168;-50
2022/05/11 01:55:00;;;;;;;;;6.75;6.75;;;;;21.16;36.69;100874.47;5002477;28;46239;-49
2022/05/11 01:57:25;;;;;;;;;10.00;8.00;;;;;21.10;36.99;100880.16;5001884;28;45294;-46
2022/05/11 01:59:51;;;;;;;;;10.00;10.00;;;;;21.09;37.09;100873.97;5002470;28;45286;-49
2022/05/11 02:02:16;;;;;;;;;8.25;8.25;;;;;21.05;36.65;100877.72;5002311;28;45250;-45
2022/05/11 02:10:09;;;;;;;;;9.25;7.50;;;;;20.92;37.36;100871.38;5013873;28;45198;-48
2022/05/11 02:12:36;;;;;;;;;7.00;7.00;;;;;20.92;37.29;100871.38;5000787;28;45596;-48
2022/05/11 02:15:02;;;;;;;;;11.50;9.25;;;;;20.92;37.48;100874.03;5002184;28;46327;-48
2022/05/11 02:17:27;;;;;;;;;8.50;8.50;;;;;20.89;37.57;100869.75;5002339;28;45501;-45
2022/05/11 02:19:53;;;;;;;;;12.75;10.00;;;;;20.88;37.34;100883.16;5002004;28;45283;-46
2022/05/11 02:22:18;;;;;;;;;8.50;8.50;;;;;20.86;37.16;100874.38;5002092;28;45537;-47
2022/05/11 02:24:43;;;;;;;;;7.00;7.00;;;;;20.82;37.53;100871.00;5000658;28;47698;-49
2022/05/11 02:27:09;;;;;;;;;7.00;7.00;;;;;20.80;37.20;100872.91;5001773;28;45245;-48
2022/05/11 02:29:34;;;;;;;;;9.00;8.50;;;;;20.77;37.40;100873.94;5002188;28;45287;-49
2022/05/11 02:31:59;;;;;;;;;6.50;6.50;;;;;20.74;37.37;100868.78;5001767;28;45600;-47
2022/05/11 02:37:09;;;;;;;;;9.00;7.50;;;;;20.65;37.55;100866.56;5001943;28;45381;-47
2022/05/11 02:39:34;;;;;;;;;8.75;8.75;;;;;20.66;37.88;100872.78;5001606;28;45436;-47
2022/05/11 02:42:00;;;;;;;;;8.00;7.25;;;;;20.60;37.73;100858.81;5001684;28;45463;-47
2022/05/11 02:44:26;;;;;;;;;9.50;7.75;;;;;20.59;38.06;100867.78;5001610;28;46021;-46
2022/05/11 02:46:51;;;;;;;;;8.25;7.50;;;;;20.56;37.68;100853.72;5001874;28;45369;-48
2022/05/11 02:49:17;;;;;;;;;8.50;8.50;;;;;20.55;37.96;100857.34;5001848;28;45337;-49
2022/05/11 02:51:42;;;;;;;;;10.00;9.00;;;;;20.51;37.96;100859.28;5001737;28;45259;-49
2022/05/11 02:54:07;;;;;;;;;9.75;9.75;;;;;20.51;38.19;100856.63;5001264;28;45511;-48
2022/05/11 02:56:33;;;;;;;;;7.50;6.50;;;;;20.49;38.17;100853.19;5001519;28;45269;-49
2022/05/11 02:58:59;;;;;;;;;10.50;8.75;;;;;20.48;37.85;100850.59;5000550;28;45456;-48
2022/05/11 03:01:24;;;;;;;;;8.75;7.75;;;;;20.44;38.33;100848.09;5001502;28;45243;-48
2022/05/11 03:03:49;;;;;;;;;9.00;9.00;;;;;20.39;38.54;100842.16;5001187;28;46329;-45
2022/05/11 03:06:15;;;;;;;;;10.50;9.00;;;;;20.40;38.28;100851.88;5001607;28;45207;-48
2022/05/11 03:08:42;;;;;;;;;8.00;8.00;;;;;20.34;38.01;100849.56;5001402;28;45472;-46
2022/05/11 03:11:08;;;;;;;;;9.00;8.00;;;;;20.32;38.05;100838.09;5012787;28;45437;-47
2022/05/11 03:13:33;;;;;;;;;10.25;8.00;;;;;20.33;38.55;100855.81;5000929;28;45524;-50
2022/05/11 03:15:59;;;;;;;;;12.75;11.25;;;;;20.32;38.47;100845.25;5001368;28;45362;-45
2022/05/11 03:18:24;;;;;;;;;11.00;9.00;;;;;20.27;38.75;100845.47;5000942;28;45333;-46
2022/05/11 03:20:49;;;;;;;;;10.75;8.00;;;;;20.24;38.66;100849.16;5001342;28;45309;-50
2022/05/11 03:23:15;;;;;;;;;10.50;10.50;;;;;20.20;38.35;100841.41;4983326;28;45850;-50
2022/05/11 03:25:40;;;;;;;;;10.75;9.00;;;;;20.20;38.86;100852.06;4982990;28;45453;-49
2022/05/11 03:28:06;;;;;;;;;62.25;49.75;;;;;20.16;38.91;100848.69;5001309;28;45271;-49
2022/05/11 03:30:31;;;;;;;;;51.25;41.25;;;;;20.16;39.11;100847.84;5000997;28;45542;-47
2022/05/11 03:35:42;;;;;;;;;10.25;8.00;;;;;20.03;39.18;100834.31;5001059;28;45354;-47
2022/05/11 03:38:08;;;;;;;;;10.00;10.00;;;;;20.06;39.01;100845.69;5000732;28;45259;-50
2022/05/11 03:40:38;;;;;;;;;8.25;8.25;;;;;20.07;39.37;100851.88;5000427;28;45398;-49
2022/05/11 03:43:04;;;;;;;;;11.75;10.25;;;;;20.04;39.19;100852.03;5000648;28;45489;-47
2022/05/11 03:45:30;;;;;;;;;11.00;10.00;;;;;20.01;38.94;100847.69;5000767;28;45354;-49
2022/05/11 03:47:55;;;;;;;;;8.25;8.25;;;;;19.97;39.29;100846.13;4982883;28;45377;-48
2022/05/11 03:50:22;;;;;;;;;13.00;11.25;;;;;19.97;39.03;100848.81;5001008;28;45318;-48
2022/05/11 03:52:53;;;;;;;;;11.25;11.00;;;;;19.93;39.37;100844.59;5000367;28;46351;-50
2022/05/11 03:55:20;;;;;;;;;11.00;10.00;;;;;19.92;39.23;100842.84;5000456;28;45275;-50
2022/05/11 03:57:46;;;;;;;;;10.25;10.00;;;;;19.91;39.39;100839.34;5000302;28;45358;-46
2022/05/11 04:00:16;;;;;;;;;17.00;12.75;;;;;19.89;39.54;100835.88;5000712;28;45381;-47
2022/05/11 04:02:42;;;;;;;;;11.25;11.25;;;;;19.86;39.33;100844.06;5000450;28;45197;-49
2022/05/11 04:05:09;;;;;;;;;12.50;11.75;;;;;19.75;39.17;100833.03;5000541;28;45313;-50
2022/05/11 04:07:35;;;;;;;;;15.50;14.75;;;;;19.81;39.39;100841.56;5000280;28;45372;-48
2022/05/11 04:10:01;;;;;;;;;11.25;11.25;;;;;19.80;39.47;100850.50;5010314;28;45321;-45
2022/05/11 04:12:29;;;;;;;;;11.25;11.00;;;;;19.77;39.48;100848.03;5001322;28;46328;-47
2022/05/11 04:14:55;;;;;;;;;12.25;12.25;;;;;19.74;39.63;100849.97;5000502;28;45244;-48
2022/05/11 04:17:21;;;;;;;;;15.00;14.00;;;;;19.75;39.38;100854.38;5000196;28;45457;-48
2022/05/11 04:19:46;;;;;;;;;18.25;15.25;;;;;19.73;40.03;100858.91;5000002;28;45218;-50
2022/05/11 04:22:11;;;;;;;;;19.00;15.25;;;;;19.71;39.99;100851.00;4999942;28;45240;-48
2022/05/11 04:24:37;;;;;;;;;14.50;14.00;;;;;19.69;39.64;100858.19;5000130;28;45168;-48
2022/05/11 04:27:02;;;;;;;;;17.75;16.50;;;;;19.68;40.07;100856.47;4999949;28;45152;-50
2022/05/11 04:29:28;;;;;;;;;23.25;20.25;;;;;19.66;39.65;100861.03;5000119;28;45418;-48
2022/05/11 04:31:55;;;;;;;;;16.50;15.75;;;;;19.62;40.41;100860.31;5000035;28;45917;-49
2022/05/11 04:34:20;;;;;;;;;17.75;17.75;;;;;19.60;40.14;100859.53;5000196;28;45415;-49
2022/05/11 04:36:46;;;;;;;;;14.25;12.75;;;;;19.58;40.36;100860.53;5000093;28;45260;-50
2022/05/11 04:39:11;;;;;;;;;19.25;17.00;;;;;19.56;40.20;100854.41;4999998;28;45248;-51
2022/05/11 04:41:37;;;;;;;;;20.75;19.25;;;;;19.54;40.56;100858.97;4999403;28;45243;-48
2022/05/11 04:44:02;;;;;;;;;20.25;19.50;;;;;19.52;40.33;100855.50;5000016;28;45403;-48
2022/05/11 04:46:28;;;;;;;;;19.25;18.50;;;;;19.48;40.39;100853.00;4999951;28;45224;-50
2022/05/11 04:49:16;;;;;;;;;20.50;18.25;;;;;19.45;40.51;100846.97;5000083;28;45344;-48
2022/05/11 04:51:39;;;;;;;;;22.75;21.25;;;;;19.44;40.45;100854.09;4999716;28;45225;-46
2022/05/11 04:54:04;;;;;;;;;25.75;22.00;;;;;19.42;40.67;100855.09;4999623;28;45287;-49
2022/05/11 04:56:32;;;;;;;;;21.75;20.75;;;;;19.42;40.63;100855.97;4999711;28;45421;-50
2022/05/11 04:58:58;;;;;;;;;23.50;21.50;;;;;19.37;40.42;100842.03;4999795;28;45240;-51
2022/05/11 05:01:25;;;;;;;;;23.25;20.25;;;;;19.36;40.94;100856.28;4981812;28;48296;-49
2022/05/11 05:03:51;;;;;;;;;21.25;20.25;;;;;19.35;40.67;100859.88;4999540;28;45469;-48
2022/05/11 05:06:16;;;;;;;;;21.25;20.50;;;;;19.31;40.92;100859.16;4999776;28;45271;-50
2022/05/11 05:08:41;;;;;;;;;24.50;22.50;;;;;19.29;40.79;100855.69;4999403;28;45498;-47
2022/05/11 05:11:07;;;;;;;;;20.75;20.75;;;;;19.27;41.07;100854.94;5011254;28;47121;-49
2022/05/11 05:13:32;;;;;;;;;27.50;26.75;;;;;19.25;40.98;100862.13;4999507;28;45339;-49
2022/05/11 05:15:58;;;;;;;;;21.50;21.50;;;;;19.21;41.00;100857.03;4999875;28;45277;-49
2022/05/11 05:18:24;;;;;;;;;26.50;24.25;;;;;19.20;41.41;100856.16;4999479;28;45245;-50
2022/05/11 05:20:49;;;;;;;;;24.75;23.50;;;;;19.17;41.48;100854.50;4999512;28;46760;-49
2022/05/11 05:23:15;;;;;;;;;25.00;24.50;;;;;19.13;41.64;100850.28;5001788;28;45259;-48
2022/05/11 05:25:40;;;;;;;;;26.25;25.00;;;;;19.09;41.53;100854.00;5002871;28;45236;-48
2022/05/11 05:31:05;;;;;;;;;23.25;22.25;;;;;19.02;42.00;100855.25;5002901;28;45708;-50
2022/05/11 05:33:32;;;;;;;;;23.75;20.50;;;;;19.00;41.75;100850.00;5002504;28;45393;-48
2022/05/11 05:35:57;;;;;;;;;27.25;26.25;;;;;19.00;42.09;100855.34;4985372;28;45337;-47
2022/05/11 05:38:23;;;;;;;;;24.00;23.75;;;;;18.96;41.64;100850.22;5002446;28;45292;-46
2022/05/11 05:40:49;;;;;;;;;24.75;22.25;;;;;18.94;42.06;100846.75;5000989;28;46659;-45
2022/05/11 05:43:15;;;;;;;;;24.75;23.00;;;;;18.91;41.89;100853.09;5002699;28;45361;-46
2022/05/11 05:45:46;;;;;;;;;25.50;23.25;;;;;18.93;42.11;100855.66;5002763;28;45163;-46
2022/05/11 05:48:12;;;;;;;;;23.00;23.00;;;;;18.90;42.21;100863.78;5002270;28;45287;-45
2022/05/11 05:50:37;;;;;;;;;24.00;23.25;;;;;18.85;42.03;100858.66;5002444;28;46146;-49
2022/05/11 05:53:03;;;;;;;;;20.00;20.00;;;;;18.84;42.22;100859.59;5002525;28;45365;-47
2022/05/11 05:55:28;;;;;;;;;24.00;19.00;;;;;18.81;41.95;100865.94;5002359;28;45267;-46
2022/05/11 05:57:53;;;;;;;;;22.50;22.50;;;;;18.82;42.03;100867.66;5002257;28;45658;-48
2022/05/11 06:00:19;;;;;;;;;29.25;26.75;;;;;18.82;42.17;100869.47;5002517;28;46080;-47
2022/05/11 06:02:44;;;;;;;;;23.75;23.25;;;;;18.81;42.20;100878.41;5002351;28;45459;-46
2022/05/11 06:05:11;;;;;;;;;26.75;24.25;;;;;18.77;41.94;100876.81;5002611;28;45164;-48
2022/05/11 06:07:37;;;;;;;;;28.25;23.75;;;;;18.78;42.34;100873.19;5002196;28;45263;-47
2022/05/11 06:10:03;;;;;;;;;27.25;26.00;;;;;18.75;42.11;100871.53;5012550;28;45358;-47
2022/05/11 06:12:28;;;;;;;;;26.75;26.25;;;;;18.78;42.37;100876.75;4985462;28;45457;-47
2022/05/11 06:14:53;;;;;;;;;25.50;24.25;;;;;18.79;42.37;100874.94;5002203;28;45494;-45
2022/05/11 06:17:25;;;;;;;;;25.50;25.00;;;;;18.78;42.19;100879.41;5002115;28;45414;-46
2022/05/11 06:19:52;;;;;;;;;27.00;25.00;;;;;18.78;42.48;100876.75;5001761;28;45386;-48
2022/05/11 06:22:18;;;;;;;;;21.50;19.50;;;;;18.80;42.49;100885.53;5001868;28;45296;-50
2022/05/11 06:24:43;;;;;;;;;28.50;27.00;;;;;18.83;42.37;100879.19;5001917;28;45298;-46
2022/05/11 06:27:21;;;;;;;;;28.50;26.75;;;;;18.82;42.47;100869.47;5001587;28;45568;-50
2022/05/11 06:29:52;;;;;;;;;26.75;22.75;;;;;18.86;42.45;100870.19;5001814;28;45495;-49
2022/05/11 06:32:19;;;;;;;;;18.75;18.75;;;;;18.87;42.41;100863.91;5001786;28;45239;-48
2022/05/11 06:34:45;;;;;;;;;27.50;24.25;;;;;18.88;42.12;100866.53;5001638;28;45334;-48
2022/05/11 06:37:10;;;;;;;;;23.00;21.75;;;;;18.91;42.10;100873.53;5001861;28;45343;-48
2022/05/11 06:39:36;;;;;;;;;22.25;20.25;;;;;18.86;42.58;100856.88;5001294;28;46293;-45
2022/05/11 06:42:06;;;;;;;;;20.25;20.00;;;;;18.95;42.25;100867.13;5001599;28;45521;-48
2022/05/11 06:44:32;;;;;;;;;23.50;20.00;;;;;18.98;42.41;100867.84;5001780;28;45433;-49
2022/05/11 06:46:57;;;;;;;;;28.00;26.50;;;;;19.02;42.56;100871.22;5001853;28;45246;-48
2022/05/11 06:49:23;;;;;;;;;24.00;20.50;;;;;19.05;42.29;100867.56;5001461;28;46182;-50
2022/05/11 06:51:48;;;;;;;;;21.75;21.00;;;;;19.06;42.50;100859.50;4983896;28;45381;-46
2022/05/11 06:59:41;;;;;;;;;22.00;18.00;;;;;19.14;42.39;100862.66;5001407;28;45923;-49
2022/05/11 07:02:07;;;;;;;;;16.50;14.50;;;;;19.19;42.37;100865.09;5000067;28;45238;-48
2022/05/11 07:04:33;;;;;;;;;16.75;15.00;;;;;19.23;42.23;100866.69;5000018;28;45191;-47
2022/05/11 07:06:59;;;;;;;;;16.50;16.50;;;;;19.26;42.18;100861.19;5001414;28;45438;-50
2022/05/11 07:09:27;;;;;;;;;13.50;12.75;;;;;19.30;42.21;100869.91;4988702;28;45394;-51
2022/05/11 07:14:37;;;;;;;;;10.75;10.75;;;;;19.36;41.94;100856.28;5001284;28;45465;-49
2022/05/11 07:17:03;;;;;;;;;11.50;10.75;;;;;19.42;42.36;100855.97;5001054;28;45308;-49
2022/05/11 07:19:29;;;;;;;;;8.25;8.25;;;;;19.43;41.81;100851.50;5000926;28;45394;-46
2022/05/11 07:21:54;;;;;;;;;12.50;8.00;;;;;19.45;42.18;100852.31;5001011;28;45179;-48
2022/05/11 07:24:20;;;;;;;;;10.25;10.25;;;;;19.46;42.18;100860.22;4983682;28;45272;-47
2022/05/11 07:26:46;;;;;;;;;8.50;8.00;;;;;19.52;42.30;100855.50;5000976;28;45248;-50
2022/05/11 07:29:12;;;;;;;;;11.25;10.00;;;;;19.48;41.52;100847.69;5000816;28;46388;-51
2022/05/11 07:31:38;;;;;;;;;7.25;7.25;;;;;19.56;41.82;100851.75;5001035;28;45246;-48
2022/05/11 07:34:04;;;;;;;;;9.00;7.75;;;;;19.58;41.70;100856.06;5001200;28;45349;-48
2022/05/11 07:36:30;;;;;;;;;10.00;9.75;;;;;19.62;41.56;100859.44;4983434;28;45381;-47
2022/05/11 07:38:56;;;;;;;;;6.00;6.00;;;;;19.64;41.59;100852.22;5000621;28;47143;-47
2022/05/11 07:41:21;;;;;;;;;10.00;8.00;;;;;19.72;41.14;100863.38;5000489;28;45471;-48
2022/05/11 07:43:47;;;;;;;;;8.50;7.50;;;;;19.78;41.03;100859.53;5001081;28;45315;-46
2022/05/11 07:46:12;;;;;;;;;6.00;5.00;;;;;19.81;41.42;100862.91;5000223;28;45445;-46
2022/05/11 07:48:37;;;;;;;;;6.75;6.75;;;;;19.85;40.81;100858.31;5000829;28;46087;-48
2022/05/11 07:51:03;;;;;;;;;7.25;6.50;;;;;19.92;40.63;100866.84;5000857;28;45262;-47
2022/05/11 07:53:29;;;;;;;;;6.50;5.00;;;;;19.96;40.83;100868.41;5000853;28;45409;-48
2022/05/11 08:01:23;;;;;;;;;4.00;4.00;;;;;20.07;39.63;100867.88;5000669;28;45417;-47
2022/05/11 08:03:48;;;;;;;;;4.25;4.00;;;;;20.12;39.74;100866.69;5000603;28;45238;-51
2022/05/11 08:06:16;;;;;;;;;7.25;5.00;;;;;20.14;39.08;100862.13;5000581;28;45255;-51
2022/05/11 08:08:42;;;;;;;;;3.75;3.75;;;;;20.21;39.24;100870.66;5000190;28;46322;-48
2022/05/11 08:11:07;;;;;;;;;2.50;2.50;;;;;20.20;38.85;100862.75;5011862;28;45282;-51
2022/05/11 08:13:33;;;;;;;;;3.75;3.75;;;;;20.28;38.29;100865.88;5000222;28;45236;-50
2022/05/11 08:15:59;;;;;;;;;5.00;4.00;;;;;20.29;38.32;100854.28;5000424;28;45329;-49
2022/05/11 08:18:24;;;;;;;;;3.50;3.00;;;;;20.37;38.38;100859.19;4999974;28;45433;-48
2022/05/11 08:20:50;;;;;;;;;3.00;3.00;;;;;20.41;38.09;100855.41;5000407;28;45259;-46
2022/05/11 08:23:15;;;;;;;;;5.00;3.00;;;;;20.48;38.06;100850.59;4982719;28;45436;-50
2022/05/11 08:25:43;;;;;;;;;9.75;8.25;;;;;20.51;37.62;100855.78;4999886;28;45475;-51
2022/05/11 08:28:20;;;;;;;;;10.00;8.00;;;;;20.55;37.54;100862.66;5000113;28;45311;-46
2022/05/11 08:33:32;;;;;;;;;3.75;3.75;;;;;20.59;37.04;100862.44;5000106;28;45236;-50
2022/05/11 08:36:08;;;;;;;;;8.00;4.00;;;;;20.63;37.28;100871.97;5000121;28;45188;-47
2022/05/11 08:38:38;;;;;;;;;5.75;4.50;;;;;20.71;37.33;100874.25;4999933;28;46165;-47
2022/05/11 08:41:08;;;;;;;;;5.50;4.00;;;;;20.78;37.89;100878.34;4999629;28;45231;-47
2022/05/11 08:43:35;;;;;;;;;6.00;4.25;;;;;20.83;37.30;100871.88;5000337;28;45418;-50
2022/05/11 08:46:38;;;;;;;;;4.25;3.00;;;;;20.91;37.63;100872.31;4999807;28;45433;-47
2022/05/11 08:49:11;;;;;;;;;4.50;4.00;;;;;20.96;37.85;100877.41;4999790;28;45310;-49
2022/05/11 08:52:02;;;;;;;;;5.75;5.25;;;;;21.02;37.19;100872.56;5000107;28;45284;-48
2022/05/11 08:54:53;;;;;;;;;5.75;4.00;;;;;21.13;37.67;100873.78;4999782;28;45516;-49
2022/05/11 08:57:23;;;;;;;;;4.00;4.00;;;;;21.15;37.63;100875.41;5000665;28;45397;-49
2022/05/11 09:00:03;;;;;;;;;3.75;3.75;;;;;21.24;37.11;100858.00;5003234;28;45343;-46
2022/05/11 09:02:36;;;;;;;;;6.75;5.25;;;;;21.24;37.71;100864.22;5003148;28;45394;-49
2022/05/11 09:05:03;;;;;;;;;5.75;4.25;;;;;21.30;37.42;100870.16;5003503;28;45291;-48
2022/05/11 09:07:35;;;;;;;;;4.00;4.00;;;;;21.35;37.01;100860.91;5003178;28;45516;-49
2022/05/11 09:10:00;;;;;;;;;4.00;4.00;;;;;21.38;37.39;100871.44;4995628;28;46406;-48
2022/05/11 09:12:26;;;;;;;;;3.00;3.00;;;;;21.48;37.28;100868.22;5004497;28;45421;-50
2022/05/11 09:14:55;;;;;;;;;4.75;4.75;;;;;21.47;37.11;100867.38;5003187;28;45265;-50
2022/05/11 09:17:33;;;;;;;;;3.00;3.00;;;;;21.49;36.36;100865.47;5003005;28;45284;-48
2022/05/11 09:20:06;;;;;;;;;4.00;4.00;;;;;21.55;36.87;100880.28;5002517;28;46055;-45
2022/05/11 09:22:37;;;;;;;;;5.50;4.00;;;;;21.54;36.04;100859.84;5001625;28;45318;-51
2022/05/11 09:25:16;;;;;;;;;2.25;2.00;;;;;21.63;36.02;100867.34;5002721;28;45306;-49
2022/05/11 09:27:41;;;;;;;;;4.00;4.00;;;;;21.72;36.38;100877.53;4985287;28;45367;-50
2022/05/11 09:30:30;;;;;;;;;3.00;3.00;;;;;21.78;36.58;100870.94;5002601;28;46325;-50
2022/05/11 09:33:16;;;;;;;;;3.25;3.25;;;;;21.88;36.39;100863.22;5002818;28;45287;-50
2022/05/11 09:35:44;;;;;;;;;2.00;2.00;;;;;21.94;35.57;100878.91;5003116;28;45179;-50
2022/05/11 09:38:28;;;;;;;;;4.25;3.75;;;;;21.97;35.69;100870.69;5002591;28;46092;-45
2022/05/11 09:41:09;;;;;;;;;2.00;2.00;;;;;22.02;35.45;100863.25;5001088;28;48741;-49
2022/05/11 09:43:56;;;;;;;;;4.00;4.00;;;;;22.11;35.30;100877.03;5002813;28;45251;-47
2022/05/11 09:46:27;;;;;;;;;5.00;4.00;;;;;22.16;35.62;100866.91;5002569;28;45251;-47
2022/05/11 09:49:13;;;;;;;;;2.50;2.50;;;;;22.31;34.83;100862.44;5002706;28;45295;-49
2022/05/11 09:51:38;;;;;;;;;2.50;2.50;;;;;22.33;35.20;100865.88;5001328;28;47125;-49
2022/05/11 09:54:06;;;;;;;;;3.50;3.00;;;;;22.36;34.91;100868.38;5002374;28;45394;-48
2022/05/11 09:56:34;;;;;;;;;4.25;1.00;;;;;22.41;34.28;100860.94;5001297;28;45301;-47
2022/05/11 09:59:24;;;;;;;;;4.00;2.25;;;;;22.50;34.71;100872.88;5002326;28;45336;-48
2022/05/11 10:01:57;;;;;;;;;1.75;1.00;;;;;22.58;34.23;100862.56;5001102;28;48032;-50
2022/05/11 10:04:30;;;;;;;;;4.00;4.00;;;;;22.66;34.57;100848.69;5002237;28;45386;-46
2022/05/11 10:06:57;;;;;;;;;17.00;14.75;;;;;22.77;34.29;100854.22;5002451;28;45332;-47
2022/05/11 10:09:32;;;;;;;;;7.25;7.25;;;;;22.90;34.13;100867.69;5006772;28;45329;-51
2022/05/11 10:12:00;;;;;;;;;4.50;4.50;;;;;22.93;34.06;100851.44;5007066;28;47149;-48
2022/05/11 10:23:06;;;;;;;;;3.50;3.25;;;;;23.35;33.37;100854.97;5001997;28;45259;-45
2022/05/11 10:25:43;;;;;;;;;2.00;2.00;;;;;23.41;32.92;100847.47;5001500;28;45488;-46
2022/05/11 10:28:32;;;;;;;;;3.50;3.50;;;;;23.55;33.07;100855.47;5001956;28;45313;-46
2022/05/11 10:31:00;;;;;;;;;4.00;4.00;;;;;23.65;33.49;100856.56;5002119;28;45411;-47
2022/05/11 10:33:46;;;;;;;;;3.00;3.00;;;;;23.76;33.19;100857.63;5001660;28;46039;-49
2022/05/11 10:36:29;;;;;;;;;3.75;2.50;;;;;23.97;33.04;100844.63;5001811;28;45283;-49
2022/05/11 10:38:57;;;;;;;;;3.00;2.75;;;;;24.15;33.52;100856.75;5000496;28;45334;-50
2022/05/11 10:41:32;;;;;;;;;4.00;4.00;;;;;24.38;33.49;100861.47;5001399;28;45322;-46
2022/05/11 10:44:12;;;;;;;;;4.25;2.75;;;;;24.58;33.82;100860.91;5001758;28;45992;-47
2022/05/11 10:47:16;;;;;;;;;3.25;2.25;;;;;24.91;33.07;100858.63;5001507;28;45366;-47
2022/05/11 10:49:50;;;;;;;;;3.25;2.25;;;;;25.26;33.67;100845.25;5001715;28;45605;-49
2022/05/11 10:52:18;;;;;;;;;2.50;2.50;;;;;25.52;33.11;100850.56;5001849;28;45168;-48
2022/05/11 10:54:49;;;;;;;;;2.75;2.75;;;;;25.72;33.47;100850.84;4999997;28;45977;-49
2022/05/11 10:57:38;;;;;;;;;2.00;2.00;;;;;26.07;33.35;100844.59;5001280;28;45268;-48
2022/05/11 11:00:15;;;;;;;;;2.50;2.00;;;;;26.39;32.53;100841.19;5000342;28;45433;-51
2022/05/11 11:03:08;;;;;;;;;2.00;2.00;;;;;26.69;33.28;100842.41;5001374;28;45290;-51
2022/05/11 11:05:39;;;;;;;;;3.25;2.00;;;;;27.01;32.70;100838.97;4984732;28;47014;-50
2022/05/11 11:08:35;;;;;;;;;3.00;3.00;;;;;27.27;32.49;100836.81;5001212;28;45318;-47
2022/05/11 11:11:29;;;;;;;;;3.25;2.25;;;;;27.54;32.04;100847.13;5013020;28;45377;-49
2022/05/11 11:14:00;;;;;;;;;2.00;2.00;;;;;27.74;32.28;100840.03;5001161;28;45241;-48
2022/05/11 11:16:30;;;;;;;;;2.00;2.00;;;;;27.93;32.02;100846.56;5001245;28;46363;-49
2022/05/11 11:18:57;;;;;;;;;2.00;2.00;;;;;28.04;31.90;100838.41;5000741;28;45236;-50
2022/05/11 11:21:23;;;;;;;;;3.50;2.00;;;;;28.19;31.25;100844.31;5000539;28;45239;-48
2022/05/11 11:24:23;;;;;;;;;2.00;2.00;;;;;28.45;30.92;100835.78;5000926;28;45556;-49
2022/05/11 11:26:48;;;;;;;;;2.00;2.00;;;;;28.70;31.20;100836.31;5000540;28;45408;-49
2022/05/11 11:29:18;;;;;;;;;3.25;3.25;;;;;28.93;31.05;100838.78;4999788;28;45214;-51
2022/05/11 11:32:01;;;;;;;;;4.00;3.25;;;;;29.21;31.01;100833.53;5001170;28;45323;-50
2022/05/11 11:34:32;;;;;;;;;1.50;1.50;;;;;29.40;30.95;100820.06;5000953;28;45398;-52
2022/05/11 11:36:59;;;;;;;;;2.75;2.75;;;;;29.70;30.75;100834.44;5000579;28;46352;-46
2022/05/11 11:39:57;;;;;;;;;2.00;1.25;;;;;30.03;30.63;100820.56;5000544;28;45242;-49
2022/05/11 11:42:30;;;;;;;;;2.25;2.25;;;;;30.30;30.19;100811.63;5000655;28;45350;-52
2022/05/11 11:44:55;;;;;;;;;1.00;1.00;;;;;30.51;29.87;100808.69;5000582;28;45487;-48
2022/05/11 11:47:27;;;;;;;;;1.25;1.25;;;;;30.73;29.96;100802.03;5000695;28;45412;-48
2022/05/11 11:49:55;;;;;;;;;1.00;1.00;;;;;30.88;30.69;100798.78;5000593;28;45329;-51
2022/05/11 11:52:39;;;;;;;;;2.00;1.00;;;;;31.06;29.58;100815.94;5000754;28;45205;-46
2022/05/11 11:55:23;;;;;;;;;0.75;0.75;;;;;31.16;29.63;100796.03;5000225;28;45227;-48
2022/05/11 11:57:55;;;;;;;;;1.00;1.00;;;;;31.27;30.04;100804.78;5000236;28;46499;-48
2022/05/11 12:00:20;;;;;;;;;4.00;2.50;;;;;31.40;29.86;100803.56;4982769;28;45347;-51
2022/05/11 12:02:46;;;;;;;;;4.50;3.25;;;;;31.47;29.18;100788.31;5000393;28;45322;-49
2022/05/11 12:05:39;;;;;;;;;2.25;1.75;;;;;31.58;28.90;100787.22;5000514;28;45522;-50
2022/05/11 12:16:57;;;;;;;;;2.00;2.00;;;;;31.78;28.03;100798.75;5000576;28;45311;-51